sensor_id;sensor_type;location;lat;lon;timestamp;P1;durP1;ratioP1;P2;durP2;ratioP2
4889;SDS011;2459;42.268;23.112;2023-02-15T00:01:42;26.97;;;12.67;;
4889;SDS011;2459;42.268;23.112;2023-02-15T00:04:08;28.27;;;13.97;;
4889;SDS011;2459;42.268;23.112;2023-02-15T00:06:36;42.00;;;20.40;;
4889;SDS011;2459;42.268;23.112;2023-02-15T00:09:03;39.17;;;19.53;;
4889;SDS011;2459;42.268;23.112;2023-02-15T00:11:29;40.97;;;20.77;;
4889;SDS011;2459;42.268;23.112;2023-02-15T00:14:06;36.30;;;18.27;;
4889;SDS011;2459;42.268;23.112;2023-02-15T00:16:32;43.33;;;22.03;;
4889;SDS011;2459;42.268;23.112;2023-02-15T00:18:59;49.27;;;20.23;;
4889;SDS011;2459;42.268;23.112;2023-02-15T00:21:27;46.67;;;21.43;;
4889;SDS011;2459;42.268;23.112;2023-02-15T00:23:55;53.00;;;25.27;;
4889;SDS011;2459;42.268;23.112;2023-02-15T00:26:21;48.20;;;20.60;;
4889;SDS011;2459;42.268;23.112;2023-02-15T00:28:48;56.93;;;23.63;;
4889;SDS011;2459;42.268;23.112;2023-02-15T00:31:14;51.23;;;23.83;;
4889;SDS011;2459;42.268;23.112;2023-02-15T00:33:41;46.57;;;21.00;;
4889;SDS011;2459;42.268;23.112;2023-02-15T00:36:08;56.27;;;22.60;;
4889;SDS011;2459;42.268;23.112;2023-02-15T00:38:34;45.37;;;20.40;;
4889;SDS011;2459;42.268;23.112;2023-02-15T00:41:08;49.47;;;21.23;;
4889;SDS011;2459;42.268;23.112;2023-02-15T00:43:35;49.57;;;21.27;;
4889;SDS011;2459;42.268;23.112;2023-02-15T00:46:02;69.30;;;27.93;;
4889;SDS011;2459;42.268;23.112;2023-02-15T00:48:28;42.03;;;21.33;;
4889;SDS011;2459;42.268;23.112;2023-02-15T00:50:56;44.60;;;21.90;;
4889;SDS011;2459;42.268;23.112;2023-02-15T00:53:23;48.90;;;22.20;;
4889;SDS011;2459;42.268;23.112;2023-02-15T00:55:49;51.87;;;23.87;;
4889;SDS011;2459;42.268;23.112;2023-02-15T00:58:17;54.27;;;24.27;;
4889;SDS011;2459;42.268;23.112;2023-02-15T01:00:44;44.63;;;23.13;;
4889;SDS011;2459;42.268;23.112;2023-02-15T01:03:11;46.47;;;20.77;;
4889;SDS011;2459;42.268;23.112;2023-02-15T01:05:37;58.00;;;24.07;;
4889;SDS011;2459;42.268;23.112;2023-02-15T01:08:04;53.00;;;23.20;;
4889;SDS011;2459;42.268;23.112;2023-02-15T01:10:31;54.37;;;26.30;;
4889;SDS011;2459;42.268;23.112;2023-02-15T01:12:57;49.97;;;24.83;;
4889;SDS011;2459;42.268;23.112;2023-02-15T01:15:25;49.17;;;24.40;;
4889;SDS011;2459;42.268;23.112;2023-02-15T01:17:52;60.20;;;25.60;;
4889;SDS011;2459;42.268;23.112;2023-02-15T01:20:18;59.10;;;24.20;;
4889;SDS011;2459;42.268;23.112;2023-02-15T01:22:45;43.80;;;17.90;;
4889;SDS011;2459;42.268;23.112;2023-02-15T01:25:11;38.73;;;19.17;;
4889;SDS011;2459;42.268;23.112;2023-02-15T01:27:38;51.93;;;24.90;;
4889;SDS011;2459;42.268;23.112;2023-02-15T01:30:05;40.67;;;21.30;;
4889;SDS011;2459;42.268;23.112;2023-02-15T01:32:33;46.03;;;21.30;;
4889;SDS011;2459;42.268;23.112;2023-02-15T01:35:00;42.93;;;20.50;;
4889;SDS011;2459;42.268;23.112;2023-02-15T01:37:29;46.70;;;22.83;;
4889;SDS011;2459;42.268;23.112;2023-02-15T01:43:03;50.83;;;22.23;;
4889;SDS011;2459;42.268;23.112;2023-02-15T01:45:30;40.83;;;18.67;;
4889;SDS011;2459;42.268;23.112;2023-02-15T01:48:00;44.10;;;20.80;;
4889;SDS011;2459;42.268;23.112;2023-02-15T01:50:28;45.10;;;20.17;;
4889;SDS011;2459;42.268;23.112;2023-02-15T01:52:57;137.63;;;39.10;;
4889;SDS011;2459;42.268;23.112;2023-02-15T01:55:25;64.50;;;24.37;;
4889;SDS011;2459;42.268;23.112;2023-02-15T01:57:53;54.73;;;21.63;;
4889;SDS011;2459;42.268;23.112;2023-02-15T02:00:19;58.10;;;20.87;;
4889;SDS011;2459;42.268;23.112;2023-02-15T02:02:47;41.10;;;17.13;;
4889;SDS011;2459;42.268;23.112;2023-02-15T02:05:16;45.47;;;22.37;;
4889;SDS011;2459;42.268;23.112;2023-02-15T02:07:43;40.17;;;17.60;;
4889;SDS011;2459;42.268;23.112;2023-02-15T02:10:15;53.70;;;22.37;;
4889;SDS011;2459;42.268;23.112;2023-02-15T02:12:42;46.13;;;21.00;;
4889;SDS011;2459;42.268;23.112;2023-02-15T02:15:10;47.43;;;20.83;;
4889;SDS011;2459;42.268;23.112;2023-02-15T02:17:39;52.20;;;22.40;;
4889;SDS011;2459;42.268;23.112;2023-02-15T02:20:17;86.93;;;25.07;;
4889;SDS011;2459;42.268;23.112;2023-02-15T02:22:53;127.47;;;37.20;;
4889;SDS011;2459;42.268;23.112;2023-02-15T02:25:36;85.20;;;28.17;;
4889;SDS011;2459;42.268;23.112;2023-02-15T02:28:12;32.53;;;16.40;;
4889;SDS011;2459;42.268;23.112;2023-02-15T02:30:53;45.40;;;20.87;;
4889;SDS011;2459;42.268;23.112;2023-02-15T02:33:40;49.93;;;22.13;;
4889;SDS011;2459;42.268;23.112;2023-02-15T02:36:14;46.77;;;20.80;;
4889;SDS011;2459;42.268;23.112;2023-02-15T02:38:46;47.57;;;20.00;;
4889;SDS011;2459;42.268;23.112;2023-02-15T02:41:16;51.10;;;23.27;;
4889;SDS011;2459;42.268;23.112;2023-02-15T02:43:47;38.67;;;19.80;;
4889;SDS011;2459;42.268;23.112;2023-02-15T02:46:15;37.63;;;16.63;;
4889;SDS011;2459;42.268;23.112;2023-02-15T02:48:45;44.67;;;19.37;;
4889;SDS011;2459;42.268;23.112;2023-02-15T02:51:13;61.20;;;27.00;;
4889;SDS011;2459;42.268;23.112;2023-02-15T02:53:46;46.23;;;20.70;;
4889;SDS011;2459;42.268;23.112;2023-02-15T02:56:15;83.87;;;28.03;;
4889;SDS011;2459;42.268;23.112;2023-02-15T02:58:45;39.33;;;18.03;;
4889;SDS011;2459;42.268;23.112;2023-02-15T03:01:14;38.77;;;20.70;;
4889;SDS011;2459;42.268;23.112;2023-02-15T03:03:42;41.07;;;18.53;;
4889;SDS011;2459;42.268;23.112;2023-02-15T03:06:11;41.83;;;16.30;;
4889;SDS011;2459;42.268;23.112;2023-02-15T03:08:40;31.27;;;12.87;;
4889;SDS011;2459;42.268;23.112;2023-02-15T03:11:07;56.87;;;24.40;;
4889;SDS011;2459;42.268;23.112;2023-02-15T03:13:37;42.40;;;16.87;;
4889;SDS011;2459;42.268;23.112;2023-02-15T03:16:04;36.13;;;17.07;;
4889;SDS011;2459;42.268;23.112;2023-02-15T03:18:49;34.53;;;16.87;;
4889;SDS011;2459;42.268;23.112;2023-02-15T03:21:26;41.53;;;16.40;;
4889;SDS011;2459;42.268;23.112;2023-02-15T03:23:54;49.53;;;20.20;;
4889;SDS011;2459;42.268;23.112;2023-02-15T03:26:22;43.37;;;19.50;;
4889;SDS011;2459;42.268;23.112;2023-02-15T03:28:49;47.57;;;19.67;;
4889;SDS011;2459;42.268;23.112;2023-02-15T03:31:17;40.80;;;17.80;;
4889;SDS011;2459;42.268;23.112;2023-02-15T03:33:46;45.43;;;21.20;;
4889;SDS011;2459;42.268;23.112;2023-02-15T03:36:15;43.67;;;19.47;;
4889;SDS011;2459;42.268;23.112;2023-02-15T03:38:47;38.73;;;19.80;;
4889;SDS011;2459;42.268;23.112;2023-02-15T03:41:15;42.33;;;19.53;;
4889;SDS011;2459;42.268;23.112;2023-02-15T03:43:44;43.03;;;19.97;;
4889;SDS011;2459;42.268;23.112;2023-02-15T03:46:13;39.13;;;17.17;;
4889;SDS011;2459;42.268;23.112;2023-02-15T03:48:40;39.97;;;18.70;;
4889;SDS011;2459;42.268;23.112;2023-02-15T03:51:08;46.83;;;20.23;;
4889;SDS011;2459;42.268;23.112;2023-02-15T03:53:54;44.80;;;16.67;;
4889;SDS011;2459;42.268;23.112;2023-02-15T03:56:21;35.47;;;15.83;;
4889;SDS011;2459;42.268;23.112;2023-02-15T03:58:48;43.70;;;20.47;;
4889;SDS011;2459;42.268;23.112;2023-02-15T04:01:33;39.40;;;18.30;;
4889;SDS011;2459;42.268;23.112;2023-02-15T04:04:19;40.17;;;18.23;;
4889;SDS011;2459;42.268;23.112;2023-02-15T04:06:46;42.90;;;21.00;;
4889;SDS011;2459;42.268;23.112;2023-02-15T04:09:14;35.00;;;17.60;;
4889;SDS011;2459;42.268;23.112;2023-02-15T04:11:58;41.70;;;21.03;;
4889;SDS011;2459;42.268;23.112;2023-02-15T04:14:25;46.40;;;22.47;;
4889;SDS011;2459;42.268;23.112;2023-02-15T04:17:09;40.80;;;19.90;;
4889;SDS011;2459;42.268;23.112;2023-02-15T04:19:36;40.73;;;17.63;;
4889;SDS011;2459;42.268;23.112;2023-02-15T04:22:19;36.53;;;18.27;;
4889;SDS011;2459;42.268;23.112;2023-02-15T04:25:05;55.30;;;21.50;;
4889;SDS011;2459;42.268;23.112;2023-02-15T04:27:37;43.80;;;20.10;;
4889;SDS011;2459;42.268;23.112;2023-02-15T04:30:05;48.13;;;21.60;;
4889;SDS011;2459;42.268;23.112;2023-02-15T04:32:32;52.00;;;23.07;;
4889;SDS011;2459;42.268;23.112;2023-02-15T04:34:58;55.33;;;21.30;;
4889;SDS011;2459;42.268;23.112;2023-02-15T04:37:25;51.33;;;22.07;;
4889;SDS011;2459;42.268;23.112;2023-02-15T04:39:51;41.13;;;20.87;;
4889;SDS011;2459;42.268;23.112;2023-02-15T04:42:19;47.20;;;20.60;;
4889;SDS011;2459;42.268;23.112;2023-02-15T04:44:46;52.10;;;20.20;;
4889;SDS011;2459;42.268;23.112;2023-02-15T04:47:12;49.77;;;21.17;;
4889;SDS011;2459;42.268;23.112;2023-02-15T04:49:39;45.87;;;18.33;;
4889;SDS011;2459;42.268;23.112;2023-02-15T04:52:05;51.60;;;18.40;;
4889;SDS011;2459;42.268;23.112;2023-02-15T04:54:32;51.47;;;18.50;;
4889;SDS011;2459;42.268;23.112;2023-02-15T04:56:58;46.83;;;16.20;;
4889;SDS011;2459;42.268;23.112;2023-02-15T04:59:26;41.80;;;18.63;;
4889;SDS011;2459;42.268;23.112;2023-02-15T05:01:52;22.57;;;10.53;;
4889;SDS011;2459;42.268;23.112;2023-02-15T05:04:19;39.20;;;17.23;;
4889;SDS011;2459;42.268;23.112;2023-02-15T05:06:45;39.07;;;9.87;;
4889;SDS011;2459;42.268;23.112;2023-02-15T05:09:12;40.27;;;14.50;;
4889;SDS011;2459;42.268;23.112;2023-02-15T05:11:39;33.40;;;14.80;;
4889;SDS011;2459;42.268;23.112;2023-02-15T05:14:05;50.97;;;19.20;;
4889;SDS011;2459;42.268;23.112;2023-02-15T05:16:33;53.07;;;21.73;;
4889;SDS011;2459;42.268;23.112;2023-02-15T05:18:59;56.00;;;21.10;;
4889;SDS011;2459;42.268;23.112;2023-02-15T05:21:26;63.40;;;24.27;;
4889;SDS011;2459;42.268;23.112;2023-02-15T05:23:53;50.27;;;23.87;;
4889;SDS011;2459;42.268;23.112;2023-02-15T05:26:20;52.27;;;22.17;;
4889;SDS011;2459;42.268;23.112;2023-02-15T05:29:04;47.47;;;23.40;;
4889;SDS011;2459;42.268;23.112;2023-02-15T05:31:32;36.70;;;14.83;;
4889;SDS011;2459;42.268;23.112;2023-02-15T05:33:59;50.73;;;17.53;;
4889;SDS011;2459;42.268;23.112;2023-02-15T05:36:25;75.43;;;29.17;;
4889;SDS011;2459;42.268;23.112;2023-02-15T05:38:53;94.30;;;34.77;;
4889;SDS011;2459;42.268;23.112;2023-02-15T05:41:19;57.10;;;24.07;;
4889;SDS011;2459;42.268;23.112;2023-02-15T05:43:46;57.30;;;23.80;;
4889;SDS011;2459;42.268;23.112;2023-02-15T05:46:15;43.80;;;21.07;;
4889;SDS011;2459;42.268;23.112;2023-02-15T05:48:43;87.60;;;35.77;;
4889;SDS011;2459;42.268;23.112;2023-02-15T05:51:11;71.37;;;28.17;;
4889;SDS011;2459;42.268;23.112;2023-02-15T05:53:39;57.70;;;22.50;;
4889;SDS011;2459;42.268;23.112;2023-02-15T05:56:06;57.10;;;23.73;;
4889;SDS011;2459;42.268;23.112;2023-02-15T05:58:35;43.27;;;20.50;;
4889;SDS011;2459;42.268;23.112;2023-02-15T06:01:07;106.07;;;43.27;;
4889;SDS011;2459;42.268;23.112;2023-02-15T06:03:33;62.47;;;29.17;;
4889;SDS011;2459;42.268;23.112;2023-02-15T06:06:01;73.70;;;28.87;;
4889;SDS011;2459;42.268;23.112;2023-02-15T06:08:29;66.60;;;27.70;;
4889;SDS011;2459;42.268;23.112;2023-02-15T06:10:56;59.27;;;28.17;;
4889;SDS011;2459;42.268;23.112;2023-02-15T06:13:22;72.50;;;29.37;;
4889;SDS011;2459;42.268;23.112;2023-02-15T06:15:48;60.53;;;28.53;;
4889;SDS011;2459;42.268;23.112;2023-02-15T06:18:15;49.43;;;21.60;;
4889;SDS011;2459;42.268;23.112;2023-02-15T06:20:45;88.20;;;32.50;;
4889;SDS011;2459;42.268;23.112;2023-02-15T06:23:13;67.77;;;26.03;;
4889;SDS011;2459;42.268;23.112;2023-02-15T06:25:39;66.33;;;27.47;;
4889;SDS011;2459;42.268;23.112;2023-02-15T06:28:06;81.70;;;33.60;;
4889;SDS011;2459;42.268;23.112;2023-02-15T06:30:32;67.07;;;30.47;;
4889;SDS011;2459;42.268;23.112;2023-02-15T06:32:59;76.50;;;34.47;;
4889;SDS011;2459;42.268;23.112;2023-02-15T06:35:25;90.97;;;35.80;;
4889;SDS011;2459;42.268;23.112;2023-02-15T06:37:52;79.97;;;34.20;;
4889;SDS011;2459;42.268;23.112;2023-02-15T06:40:20;83.77;;;37.53;;
4889;SDS011;2459;42.268;23.112;2023-02-15T06:42:46;214.37;;;66.10;;
4889;SDS011;2459;42.268;23.112;2023-02-15T06:45:13;103.23;;;38.93;;
4889;SDS011;2459;42.268;23.112;2023-02-15T06:47:39;101.73;;;39.10;;
4889;SDS011;2459;42.268;23.112;2023-02-15T06:50:06;94.23;;;40.07;;
4889;SDS011;2459;42.268;23.112;2023-02-15T06:52:33;87.33;;;37.87;;
4889;SDS011;2459;42.268;23.112;2023-02-15T06:54:59;77.00;;;34.80;;
4889;SDS011;2459;42.268;23.112;2023-02-15T06:57:27;73.03;;;33.80;;
4889;SDS011;2459;42.268;23.112;2023-02-15T06:59:54;94.83;;;36.50;;
4889;SDS011;2459;42.268;23.112;2023-02-15T07:02:20;65.77;;;28.70;;
4889;SDS011;2459;42.268;23.112;2023-02-15T07:04:47;68.10;;;29.10;;
4889;SDS011;2459;42.268;23.112;2023-02-15T07:07:13;76.50;;;36.43;;
4889;SDS011;2459;42.268;23.112;2023-02-15T07:09:40;84.20;;;35.87;;
4889;SDS011;2459;42.268;23.112;2023-02-15T07:12:07;77.80;;;33.23;;
4889;SDS011;2459;42.268;23.112;2023-02-15T07:14:52;50.43;;;21.93;;
4889;SDS011;2459;42.268;23.112;2023-02-15T07:17:19;56.87;;;25.83;;
4889;SDS011;2459;42.268;23.112;2023-02-15T07:19:45;68.00;;;31.13;;
4889;SDS011;2459;42.268;23.112;2023-02-15T07:22:12;59.23;;;26.57;;
4889;SDS011;2459;42.268;23.112;2023-02-15T07:24:38;35.77;;;16.83;;
4889;SDS011;2459;42.268;23.112;2023-02-15T07:27:06;40.07;;;20.23;;
4889;SDS011;2459;42.268;23.112;2023-02-15T07:29:32;61.73;;;28.63;;
4889;SDS011;2459;42.268;23.112;2023-02-15T07:32:00;71.20;;;32.47;;
4889;SDS011;2459;42.268;23.112;2023-02-15T07:34:27;80.57;;;36.50;;
4889;SDS011;2459;42.268;23.112;2023-02-15T07:36:53;82.00;;;33.10;;
4889;SDS011;2459;42.268;23.112;2023-02-15T07:39:20;73.63;;;32.30;;
4889;SDS011;2459;42.268;23.112;2023-02-15T07:41:46;76.30;;;31.93;;
4889;SDS011;2459;42.268;23.112;2023-02-15T07:44:13;83.70;;;35.17;;
4889;SDS011;2459;42.268;23.112;2023-02-15T07:46:40;71.43;;;30.87;;
4889;SDS011;2459;42.268;23.112;2023-02-15T07:49:08;76.47;;;32.40;;
4889;SDS011;2459;42.268;23.112;2023-02-15T07:51:35;72.93;;;31.93;;
4889;SDS011;2459;42.268;23.112;2023-02-15T07:54:01;83.30;;;33.30;;
4889;SDS011;2459;42.268;23.112;2023-02-15T07:56:28;79.13;;;34.67;;
4889;SDS011;2459;42.268;23.112;2023-02-15T07:58:54;76.57;;;33.90;;
4889;SDS011;2459;42.268;23.112;2023-02-15T08:01:23;79.13;;;36.57;;
4889;SDS011;2459;42.268;23.112;2023-02-15T08:03:50;74.37;;;30.47;;
4889;SDS011;2459;42.268;23.112;2023-02-15T08:06:18;63.67;;;28.20;;
4889;SDS011;2459;42.268;23.112;2023-02-15T08:08:44;86.07;;;31.33;;
4889;SDS011;2459;42.268;23.112;2023-02-15T08:11:14;81.33;;;34.77;;
4889;SDS011;2459;42.268;23.112;2023-02-15T08:13:59;88.73;;;43.03;;
4889;SDS011;2459;42.268;23.112;2023-02-15T08:16:29;75.70;;;34.37;;
4889;SDS011;2459;42.268;23.112;2023-02-15T08:18:55;73.63;;;28.60;;
4889;SDS011;2459;42.268;23.112;2023-02-15T08:21:24;87.10;;;38.10;;
4889;SDS011;2459;42.268;23.112;2023-02-15T08:23:51;78.73;;;32.90;;
4889;SDS011;2459;42.268;23.112;2023-02-15T08:26:18;88.00;;;39.70;;
4889;SDS011;2459;42.268;23.112;2023-02-15T08:28:44;75.40;;;33.73;;
4889;SDS011;2459;42.268;23.112;2023-02-15T08:31:12;77.47;;;31.07;;
4889;SDS011;2459;42.268;23.112;2023-02-15T08:33:39;65.60;;;30.53;;
4889;SDS011;2459;42.268;23.112;2023-02-15T08:36:06;66.47;;;32.17;;
4889;SDS011;2459;42.268;23.112;2023-02-15T08:38:35;95.27;;;33.87;;
4889;SDS011;2459;42.268;23.112;2023-02-15T08:41:08;70.23;;;30.13;;
4889;SDS011;2459;42.268;23.112;2023-02-15T08:43:35;51.27;;;21.60;;
4889;SDS011;2459;42.268;23.112;2023-02-15T08:46:01;69.20;;;31.20;;
4889;SDS011;2459;42.268;23.112;2023-02-15T08:48:28;51.33;;;20.90;;
4889;SDS011;2459;42.268;23.112;2023-02-15T08:50:54;54.67;;;26.50;;
4889;SDS011;2459;42.268;23.112;2023-02-15T08:53:21;56.93;;;25.80;;
4889;SDS011;2459;42.268;23.112;2023-02-15T08:55:54;39.13;;;18.80;;
4889;SDS011;2459;42.268;23.112;2023-02-15T08:58:20;58.63;;;26.33;;
4889;SDS011;2459;42.268;23.112;2023-02-15T09:00:47;60.87;;;26.70;;
4889;SDS011;2459;42.268;23.112;2023-02-15T09:03:13;54.87;;;24.07;;
4889;SDS011;2459;42.268;23.112;2023-02-15T09:05:40;63.77;;;26.87;;
4889;SDS011;2459;42.268;23.112;2023-02-15T09:08:06;49.00;;;23.37;;
4889;SDS011;2459;42.268;23.112;2023-02-15T09:10:33;46.20;;;19.67;;
4889;SDS011;2459;42.268;23.112;2023-02-15T09:13:01;58.93;;;20.73;;
4889;SDS011;2459;42.268;23.112;2023-02-15T09:15:27;41.60;;;20.80;;
4889;SDS011;2459;42.268;23.112;2023-02-15T09:17:54;60.33;;;24.20;;
4889;SDS011;2459;42.268;23.112;2023-02-15T09:20:24;98.47;;;23.93;;
4889;SDS011;2459;42.268;23.112;2023-02-15T09:22:51;49.50;;;20.80;;
4889;SDS011;2459;42.268;23.112;2023-02-15T09:25:17;39.80;;;19.30;;
4889;SDS011;2459;42.268;23.112;2023-02-15T09:27:44;53.10;;;23.00;;
4889;SDS011;2459;42.268;23.112;2023-02-15T09:30:13;40.50;;;17.97;;
4889;SDS011;2459;42.268;23.112;2023-02-15T09:32:39;37.53;;;18.67;;
4889;SDS011;2459;42.268;23.112;2023-02-15T09:35:06;59.90;;;20.50;;
4889;SDS011;2459;42.268;23.112;2023-02-15T09:37:33;43.13;;;20.13;;
4889;SDS011;2459;42.268;23.112;2023-02-15T09:39:59;42.60;;;20.83;;
4889;SDS011;2459;42.268;23.112;2023-02-15T09:42:40;13.70;;;8.50;;
4889;SDS011;2459;42.268;23.112;2023-02-15T09:45:18;37.47;;;17.50;;
4889;SDS011;2459;42.268;23.112;2023-02-15T09:47:56;38.50;;;19.93;;
4889;SDS011;2459;42.268;23.112;2023-02-15T09:50:29;58.13;;;19.57;;
4889;SDS011;2459;42.268;23.112;2023-02-15T09:53:07;66.70;;;19.17;;
4889;SDS011;2459;42.268;23.112;2023-02-15T09:55:54;29.97;;;16.40;;
4889;SDS011;2459;42.268;23.112;2023-02-15T09:58:25;30.10;;;15.97;;
4889;SDS011;2459;42.268;23.112;2023-02-15T10:00:57;39.87;;;16.83;;
4889;SDS011;2459;42.268;23.112;2023-02-15T10:03:31;30.37;;;16.40;;
4889;SDS011;2459;42.268;23.112;2023-02-15T10:06:06;36.93;;;17.13;;
4889;SDS011;2459;42.268;23.112;2023-02-15T10:08:46;36.90;;;18.53;;
4889;SDS011;2459;42.268;23.112;2023-02-15T10:11:15;46.13;;;19.83;;
4889;SDS011;2459;42.268;23.112;2023-02-15T10:14:04;55.87;;;19.73;;
4889;SDS011;2459;42.268;23.112;2023-02-15T10:16:37;38.83;;;18.23;;
4889;SDS011;2459;42.268;23.112;2023-02-15T10:19:08;35.27;;;16.00;;
4889;SDS011;2459;42.268;23.112;2023-02-15T10:21:42;40.90;;;20.00;;
4889;SDS011;2459;42.268;23.112;2023-02-15T10:24:17;37.77;;;18.57;;
4889;SDS011;2459;42.268;23.112;2023-02-15T10:26:46;34.20;;;17.40;;
4889;SDS011;2459;42.268;23.112;2023-02-15T10:29:15;33.67;;;18.50;;
4889;SDS011;2459;42.268;23.112;2023-02-15T10:31:48;23.33;;;11.60;;
4889;SDS011;2459;42.268;23.112;2023-02-15T10:34:16;26.27;;;14.57;;
4889;SDS011;2459;42.268;23.112;2023-02-15T10:36:53;66.20;;;21.47;;
4889;SDS011;2459;42.268;23.112;2023-02-15T10:39:26;33.67;;;15.80;;
4889;SDS011;2459;42.268;23.112;2023-02-15T10:41:57;26.20;;;13.67;;
4889;SDS011;2459;42.268;23.112;2023-02-15T10:44:31;30.33;;;13.80;;
4889;SDS011;2459;42.268;23.112;2023-02-15T10:47:14;33.03;;;16.93;;
4889;SDS011;2459;42.268;23.112;2023-02-15T10:49:45;29.97;;;16.13;;
4889;SDS011;2459;42.268;23.112;2023-02-15T10:52:20;34.60;;;17.57;;
4889;SDS011;2459;42.268;23.112;2023-02-15T10:54:50;46.03;;;17.60;;
4889;SDS011;2459;42.268;23.112;2023-02-15T10:57:24;31.03;;;15.50;;
4889;SDS011;2459;42.268;23.112;2023-02-15T10:59:58;56.93;;;18.87;;
4889;SDS011;2459;42.268;23.112;2023-02-15T11:02:31;28.33;;;15.50;;
4889;SDS011;2459;42.268;23.112;2023-02-15T11:05:02;41.87;;;15.63;;
4889;SDS011;2459;42.268;23.112;2023-02-15T11:07:35;22.97;;;14.63;;
4889;SDS011;2459;42.268;23.112;2023-02-15T11:10:05;28.97;;;15.60;;
4889;SDS011;2459;42.268;23.112;2023-02-15T11:12:33;28.80;;;14.33;;
4889;SDS011;2459;42.268;23.112;2023-02-15T11:15:01;27.83;;;13.90;;
4889;SDS011;2459;42.268;23.112;2023-02-15T11:17:30;26.60;;;16.77;;
4889;SDS011;2459;42.268;23.112;2023-02-15T11:20:02;39.53;;;15.67;;
4889;SDS011;2459;42.268;23.112;2023-02-15T11:22:31;21.87;;;14.27;;
4889;SDS011;2459;42.268;23.112;2023-02-15T11:24:59;30.20;;;14.10;;
4889;SDS011;2459;42.268;23.112;2023-02-15T11:27:27;21.97;;;14.03;;
4889;SDS011;2459;42.268;23.112;2023-02-15T11:29:57;30.10;;;13.73;;
4889;SDS011;2459;42.268;23.112;2023-02-15T11:32:26;21.63;;;12.60;;
4889;SDS011;2459;42.268;23.112;2023-02-15T11:34:55;25.10;;;12.93;;
4889;SDS011;2459;42.268;23.112;2023-02-15T11:37:26;25.00;;;13.67;;
4889;SDS011;2459;42.268;23.112;2023-02-15T11:39:53;17.23;;;12.67;;
4889;SDS011;2459;42.268;23.112;2023-02-15T11:42:20;21.73;;;12.50;;
4889;SDS011;2459;42.268;23.112;2023-02-15T11:44:51;39.07;;;15.20;;
4889;SDS011;2459;42.268;23.112;2023-02-15T11:47:19;36.77;;;12.53;;
4889;SDS011;2459;42.268;23.112;2023-02-15T11:49:46;23.53;;;15.77;;
4889;SDS011;2459;42.268;23.112;2023-02-15T11:52:14;33.97;;;13.27;;
4889;SDS011;2459;42.268;23.112;2023-02-15T11:54:42;23.03;;;13.50;;
4889;SDS011;2459;42.268;23.112;2023-02-15T11:57:11;43.30;;;12.47;;
4889;SDS011;2459;42.268;23.112;2023-02-15T11:59:40;33.57;;;12.77;;
4889;SDS011;2459;42.268;23.112;2023-02-15T12:02:12;34.80;;;17.03;;
4889;SDS011;2459;42.268;23.112;2023-02-15T12:04:42;17.47;;;12.33;;
4889;SDS011;2459;42.268;23.112;2023-02-15T12:07:11;19.80;;;12.77;;
4889;SDS011;2459;42.268;23.112;2023-02-15T12:09:45;26.53;;;11.60;;
4889;SDS011;2459;42.268;23.112;2023-02-15T12:12:22;25.27;;;13.63;;
4889;SDS011;2459;42.268;23.112;2023-02-15T12:14:50;27.60;;;13.93;;
4889;SDS011;2459;42.268;23.112;2023-02-15T12:17:17;21.97;;;12.90;;
4889;SDS011;2459;42.268;23.112;2023-02-15T12:19:44;28.43;;;16.73;;
4889;SDS011;2459;42.268;23.112;2023-02-15T12:22:18;31.73;;;15.50;;
4889;SDS011;2459;42.268;23.112;2023-02-15T12:24:47;23.80;;;15.60;;
4889;SDS011;2459;42.268;23.112;2023-02-15T12:27:16;31.97;;;15.53;;
4889;SDS011;2459;42.268;23.112;2023-02-15T12:29:45;28.20;;;15.20;;
4889;SDS011;2459;42.268;23.112;2023-02-15T12:32:16;22.63;;;15.20;;
4889;SDS011;2459;42.268;23.112;2023-02-15T12:34:44;26.00;;;13.60;;
4889;SDS011;2459;42.268;23.112;2023-02-15T12:37:15;24.63;;;12.90;;
4889;SDS011;2459;42.268;23.112;2023-02-15T12:39:51;25.57;;;14.90;;
4889;SDS011;2459;42.268;23.112;2023-02-15T12:42:18;24.97;;;13.47;;
4889;SDS011;2459;42.268;23.112;2023-02-15T12:44:55;28.50;;;14.13;;
4889;SDS011;2459;42.268;23.112;2023-02-15T12:47:22;19.23;;;12.93;;
4889;SDS011;2459;42.268;23.112;2023-02-15T12:50:04;20.13;;;13.70;;
4889;SDS011;2459;42.268;23.112;2023-02-15T12:52:30;24.57;;;13.67;;
4889;SDS011;2459;42.268;23.112;2023-02-15T12:55:04;24.00;;;13.50;;
4889;SDS011;2459;42.268;23.112;2023-02-15T12:57:36;20.90;;;13.30;;
4889;SDS011;2459;42.268;23.112;2023-02-15T13:00:03;30.17;;;13.90;;
4889;SDS011;2459;42.268;23.112;2023-02-15T13:02:33;27.77;;;15.73;;
4889;SDS011;2459;42.268;23.112;2023-02-15T13:05:04;39.57;;;14.97;;
4889;SDS011;2459;42.268;23.112;2023-02-15T13:07:33;26.70;;;15.57;;
4889;SDS011;2459;42.268;23.112;2023-02-15T13:10:00;32.97;;;17.13;;
4889;SDS011;2459;42.268;23.112;2023-02-15T13:12:28;24.17;;;15.90;;
4889;SDS011;2459;42.268;23.112;2023-02-15T13:14:57;24.63;;;16.00;;
4889;SDS011;2459;42.268;23.112;2023-02-15T13:17:25;29.23;;;16.33;;
4889;SDS011;2459;42.268;23.112;2023-02-15T13:19:54;47.90;;;16.60;;
4889;SDS011;2459;42.268;23.112;2023-02-15T13:22:23;31.20;;;16.37;;
4889;SDS011;2459;42.268;23.112;2023-02-15T13:24:51;59.00;;;16.07;;
4889;SDS011;2459;42.268;23.112;2023-02-15T13:27:21;30.73;;;14.47;;
4889;SDS011;2459;42.268;23.112;2023-02-15T13:29:51;75.33;;;39.63;;
4889;SDS011;2459;42.268;23.112;2023-02-15T13:32:24;22.20;;;14.60;;
4889;SDS011;2459;42.268;23.112;2023-02-15T13:34:52;23.30;;;15.20;;
4889;SDS011;2459;42.268;23.112;2023-02-15T13:37:24;25.73;;;14.97;;
4889;SDS011;2459;42.268;23.112;2023-02-15T13:39:54;20.13;;;12.70;;
4889;SDS011;2459;42.268;23.112;2023-02-15T13:42:25;25.63;;;13.57;;
4889;SDS011;2459;42.268;23.112;2023-02-15T13:45:07;20.17;;;13.13;;
4889;SDS011;2459;42.268;23.112;2023-02-15T13:47:37;22.80;;;14.13;;
4889;SDS011;2459;42.268;23.112;2023-02-15T13:50:15;35.47;;;17.33;;
4889;SDS011;2459;42.268;23.112;2023-02-15T13:52:46;21.23;;;13.47;;
4889;SDS011;2459;42.268;23.112;2023-02-15T13:55:20;21.67;;;15.07;;
4889;SDS011;2459;42.268;23.112;2023-02-15T13:57:53;29.23;;;14.77;;
4889;SDS011;2459;42.268;23.112;2023-02-15T14:00:25;25.40;;;14.00;;
4889;SDS011;2459;42.268;23.112;2023-02-15T14:05:38;21.30;;;14.20;;
4889;SDS011;2459;42.268;23.112;2023-02-15T14:08:11;20.53;;;14.20;;
4889;SDS011;2459;42.268;23.112;2023-02-15T14:10:43;20.30;;;13.63;;
4889;SDS011;2459;42.268;23.112;2023-02-15T14:13:33;25.03;;;13.83;;
4889;SDS011;2459;42.268;23.112;2023-02-15T14:16:06;21.37;;;13.30;;
4889;SDS011;2459;42.268;23.112;2023-02-15T14:18:38;22.27;;;15.27;;
4889;SDS011;2459;42.268;23.112;2023-02-15T14:21:06;25.87;;;16.07;;
4889;SDS011;2459;42.268;23.112;2023-02-15T14:23:38;29.50;;;17.60;;
4889;SDS011;2459;42.268;23.112;2023-02-15T14:29:15;26.43;;;15.00;;
4889;SDS011;2459;42.268;23.112;2023-02-15T14:31:45;27.00;;;16.90;;
4889;SDS011;2459;42.268;23.112;2023-02-15T14:34:16;32.67;;;18.20;;
4889;SDS011;2459;42.268;23.112;2023-02-15T14:36:44;49.37;;;19.23;;
4889;SDS011;2459;42.268;23.112;2023-02-15T14:39:13;38.83;;;16.17;;
4889;SDS011;2459;42.268;23.112;2023-02-15T14:41:57;43.00;;;17.70;;
4889;SDS011;2459;42.268;23.112;2023-02-15T14:44:27;31.23;;;15.70;;
4889;SDS011;2459;42.268;23.112;2023-02-15T14:46:58;26.17;;;12.63;;
4889;SDS011;2459;42.268;23.112;2023-02-15T14:49:26;29.87;;;16.90;;
4889;SDS011;2459;42.268;23.112;2023-02-15T14:51:58;39.70;;;18.20;;
4889;SDS011;2459;42.268;23.112;2023-02-15T14:57:23;43.60;;;18.27;;
4889;SDS011;2459;42.268;23.112;2023-02-15T14:59:52;36.13;;;17.63;;